New Matamoras, Ohio
Current Conditions -  °F | °C
As of 6:27 AM on Tuesday 21 Oct 2014 (Local Time) from KPKB Reporting Station
Overcast Overcast  
Wind Chill:   Ceiling: 3500
Heat Index:   Visibility: 9mi
Dew Point:   Wind: 0mph
Humidity: 90%   Direction: NA
Pressure: 29.91"   Gusts: NA
Location:  39.52°N, 81.07°W
Report Text: KPKB 211027Z AUTO 00000KT 9SM SCT025 BKN035 OVC070 09/08 A2991 RMK AO2 T00940078
Loading
Personal Weather Stations






























Interactive Weather Map
Tropical Storm Tracking
New forecast layout! Learn more

10-Day Weather Forecast

Advertisements
Track Severe Weather on mobile